sensor_id;sensor_type;location;lat;lon;timestamp;P1;durP1;ratioP1;P2;durP2;ratioP2
9948;SDS011;5013;51.840;8.276;2023-02-01T00:00:31;19.73;;;5.10;;
9948;SDS011;5013;51.840;8.276;2023-02-01T00:02:59;35.30;;;6.97;;
9948;SDS011;5013;51.840;8.276;2023-02-01T00:05:25;22.73;;;4.93;;
9948;SDS011;5013;51.840;8.276;2023-02-01T00:07:50;27.53;;;6.73;;
9948;SDS011;5013;51.840;8.276;2023-02-01T00:10:16;22.77;;;5.20;;
9948;SDS011;5013;51.840;8.276;2023-02-01T00:12:42;26.10;;;5.83;;
9948;SDS011;5013;51.840;8.276;2023-02-01T00:15:08;24.63;;;5.00;;
9948;SDS011;5013;51.840;8.276;2023-02-01T00:17:34;20.60;;;4.77;;
9948;SDS011;5013;51.840;8.276;2023-02-01T00:19:59;24.73;;;4.73;;
9948;SDS011;5013;51.840;8.276;2023-02-01T00:22:25;27.07;;;5.57;;
9948;SDS011;5013;51.840;8.276;2023-02-01T00:24:50;21.30;;;5.03;;
9948;SDS011;5013;51.840;8.276;2023-02-01T00:27:16;27.27;;;5.60;;
9948;SDS011;5013;51.840;8.276;2023-02-01T00:29:45;32.17;;;6.27;;
9948;SDS011;5013;51.840;8.276;2023-02-01T00:32:10;21.23;;;5.20;;
9948;SDS011;5013;51.840;8.276;2023-02-01T00:34:36;26.13;;;5.77;;
9948;SDS011;5013;51.840;8.276;2023-02-01T00:37:02;20.10;;;4.87;;
9948;SDS011;5013;51.840;8.276;2023-02-01T00:39:27;20.17;;;5.40;;
9948;SDS011;5013;51.840;8.276;2023-02-01T00:41:53;21.87;;;5.00;;
9948;SDS011;5013;51.840;8.276;2023-02-01T00:44:18;23.13;;;4.80;;
9948;SDS011;5013;51.840;8.276;2023-02-01T00:46:44;21.40;;;5.10;;
9948;SDS011;5013;51.840;8.276;2023-02-01T00:49:09;24.87;;;5.30;;
9948;SDS011;5013;51.840;8.276;2023-02-01T00:51:35;25.83;;;5.63;;
9948;SDS011;5013;51.840;8.276;2023-02-01T00:54:01;23.67;;;6.60;;
9948;SDS011;5013;51.840;8.276;2023-02-01T00:56:28;22.10;;;4.87;;
9948;SDS011;5013;51.840;8.276;2023-02-01T00:58:53;28.90;;;7.00;;
9948;SDS011;5013;51.840;8.276;2023-02-01T01:01:23;25.13;;;5.63;;
9948;SDS011;5013;51.840;8.276;2023-02-01T01:03:51;21.43;;;5.00;;
9948;SDS011;5013;51.840;8.276;2023-02-01T01:06:20;26.03;;;5.73;;
9948;SDS011;5013;51.840;8.276;2023-02-01T01:08:54;22.37;;;5.70;;
9948;SDS011;5013;51.840;8.276;2023-02-01T01:11:25;28.50;;;5.67;;
9948;SDS011;5013;51.840;8.276;2023-02-01T01:13:53;22.23;;;5.87;;
9948;SDS011;5013;51.840;8.276;2023-02-01T01:16:20;18.63;;;4.70;;
9948;SDS011;5013;51.840;8.276;2023-02-01T01:18:47;24.53;;;5.30;;
9948;SDS011;5013;51.840;8.276;2023-02-01T01:21:13;21.30;;;5.20;;
9948;SDS011;5013;51.840;8.276;2023-02-01T01:23:40;28.07;;;7.43;;
9948;SDS011;5013;51.840;8.276;2023-02-01T01:26:11;26.17;;;5.60;;
9948;SDS011;5013;51.840;8.276;2023-02-01T01:28:39;24.90;;;6.67;;
9948;SDS011;5013;51.840;8.276;2023-02-01T01:31:07;23.80;;;6.47;;
9948;SDS011;5013;51.840;8.276;2023-02-01T01:33:34;38.33;;;7.30;;
9948;SDS011;5013;51.840;8.276;2023-02-01T01:36:00;20.93;;;6.20;;
9948;SDS011;5013;51.840;8.276;2023-02-01T01:38:25;37.27;;;8.27;;
9948;SDS011;5013;51.840;8.276;2023-02-01T01:40:51;25.50;;;7.23;;
9948;SDS011;5013;51.840;8.276;2023-02-01T01:43:18;28.57;;;6.93;;
9948;SDS011;5013;51.840;8.276;2023-02-01T01:45:47;27.97;;;8.27;;
9948;SDS011;5013;51.840;8.276;2023-02-01T01:48:16;28.10;;;7.47;;
9948;SDS011;5013;51.840;8.276;2023-02-01T01:50:57;31.07;;;8.23;;
9948;SDS011;5013;51.840;8.276;2023-02-01T01:53:31;28.87;;;9.60;;
9948;SDS011;5013;51.840;8.276;2023-02-01T01:56:01;28.10;;;9.33;;
9948;SDS011;5013;51.840;8.276;2023-02-01T01:58:27;32.80;;;10.07;;
9948;SDS011;5013;51.840;8.276;2023-02-01T02:00:56;34.70;;;9.07;;
9948;SDS011;5013;51.840;8.276;2023-02-01T02:03:42;35.47;;;9.90;;
9948;SDS011;5013;51.840;8.276;2023-02-01T02:06:15;37.00;;;9.83;;
9948;SDS011;5013;51.840;8.276;2023-02-01T02:12:09;28.53;;;8.67;;
9948;SDS011;5013;51.840;8.276;2023-02-01T02:14:34;36.83;;;11.03;;
9948;SDS011;5013;51.840;8.276;2023-02-01T02:36:44;25.23;;;6.67;;
9948;SDS011;5013;51.840;8.276;2023-02-01T02:39:21;28.67;;;6.80;;
9948;SDS011;5013;51.840;8.276;2023-02-01T02:42:19;27.63;;;5.30;;
9948;SDS011;5013;51.840;8.276;2023-02-01T02:45:28;18.60;;;5.07;;
9948;SDS011;5013;51.840;8.276;2023-02-01T02:50:59;26.33;;;5.87;;
9948;SDS011;5013;51.840;8.276;2023-02-01T02:56:51;28.70;;;5.40;;
9948;SDS011;5013;51.840;8.276;2023-02-01T02:59:39;24.63;;;4.50;;
9948;SDS011;5013;51.840;8.276;2023-02-01T03:05:47;22.60;;;4.97;;
9948;SDS011;5013;51.840;8.276;2023-02-01T03:08:18;33.50;;;5.73;;
9948;SDS011;5013;51.840;8.276;2023-02-01T03:15:48;29.00;;;5.53;;
9948;SDS011;5013;51.840;8.276;2023-02-01T03:18:24;37.60;;;5.83;;
9948;SDS011;5013;51.840;8.276;2023-02-01T03:21:10;26.00;;;5.37;;
9948;SDS011;5013;51.840;8.276;2023-02-01T03:23:41;24.07;;;5.03;;
9948;SDS011;5013;51.840;8.276;2023-02-01T03:26:10;21.40;;;5.40;;
9948;SDS011;5013;51.840;8.276;2023-02-01T03:28:41;25.97;;;5.23;;
9948;SDS011;5013;51.840;8.276;2023-02-01T03:31:09;28.70;;;5.80;;
9948;SDS011;5013;51.840;8.276;2023-02-01T03:33:34;21.40;;;5.63;;
9948;SDS011;5013;51.840;8.276;2023-02-01T03:36:09;28.53;;;5.67;;
9948;SDS011;5013;51.840;8.276;2023-02-01T03:38:43;20.00;;;5.60;;
9948;SDS011;5013;51.840;8.276;2023-02-01T03:46:54;27.90;;;4.93;;
9948;SDS011;5013;51.840;8.276;2023-02-01T03:49:29;30.47;;;5.27;;
9948;SDS011;5013;51.840;8.276;2023-02-01T03:52:08;25.37;;;4.90;;
9948;SDS011;5013;51.840;8.276;2023-02-01T03:54:40;24.27;;;4.80;;
9948;SDS011;5013;51.840;8.276;2023-02-01T03:57:07;21.37;;;4.73;;
9948;SDS011;5013;51.840;8.276;2023-02-01T03:59:41;20.80;;;4.50;;
9948;SDS011;5013;51.840;8.276;2023-02-01T04:02:09;29.87;;;6.57;;
9948;SDS011;5013;51.840;8.276;2023-02-01T04:04:34;28.70;;;4.90;;
9948;SDS011;5013;51.840;8.276;2023-02-01T04:07:00;26.23;;;5.37;;
9948;SDS011;5013;51.840;8.276;2023-02-01T04:09:26;21.57;;;4.97;;
9948;SDS011;5013;51.840;8.276;2023-02-01T04:11:52;20.43;;;5.20;;
9948;SDS011;5013;51.840;8.276;2023-02-01T04:14:18;17.07;;;4.90;;
9948;SDS011;5013;51.840;8.276;2023-02-01T04:16:43;26.97;;;6.80;;
9948;SDS011;5013;51.840;8.276;2023-02-01T04:19:09;21.53;;;5.60;;
9948;SDS011;5013;51.840;8.276;2023-02-01T04:21:37;31.10;;;5.50;;
9948;SDS011;5013;51.840;8.276;2023-02-01T04:24:03;27.27;;;5.27;;
9948;SDS011;5013;51.840;8.276;2023-02-01T04:26:29;26.63;;;4.50;;
9948;SDS011;5013;51.840;8.276;2023-02-01T04:28:55;23.00;;;4.57;;
9948;SDS011;5013;51.840;8.276;2023-02-01T04:31:20;27.03;;;5.13;;
9948;SDS011;5013;51.840;8.276;2023-02-01T04:33:52;23.50;;;5.27;;
9948;SDS011;5013;51.840;8.276;2023-02-01T04:36:19;21.63;;;5.07;;
9948;SDS011;5013;51.840;8.276;2023-02-01T04:38:47;21.17;;;4.97;;
9948;SDS011;5013;51.840;8.276;2023-02-01T04:41:15;26.33;;;5.17;;
9948;SDS011;5013;51.840;8.276;2023-02-01T04:43:47;18.63;;;4.23;;
9948;SDS011;5013;51.840;8.276;2023-02-01T04:46:14;28.53;;;5.03;;
9948;SDS011;5013;51.840;8.276;2023-02-01T04:48:39;33.20;;;5.20;;
9948;SDS011;5013;51.840;8.276;2023-02-01T04:51:05;20.87;;;4.97;;
9948;SDS011;5013;51.840;8.276;2023-02-01T04:53:31;29.00;;;5.00;;
9948;SDS011;5013;51.840;8.276;2023-02-01T04:55:57;25.13;;;4.47;;
9948;SDS011;5013;51.840;8.276;2023-02-01T04:58:22;22.17;;;4.30;;
9948;SDS011;5013;51.840;8.276;2023-02-01T05:00:48;25.90;;;4.53;;
9948;SDS011;5013;51.840;8.276;2023-02-01T05:03:14;32.27;;;5.43;;
9948;SDS011;5013;51.840;8.276;2023-02-01T05:05:41;30.43;;;4.50;;
9948;SDS011;5013;51.840;8.276;2023-02-01T05:08:06;39.50;;;6.50;;
9948;SDS011;5013;51.840;8.276;2023-02-01T05:10:32;28.97;;;5.30;;
9948;SDS011;5013;51.840;8.276;2023-02-01T05:12:57;29.07;;;5.60;;
9948;SDS011;5013;51.840;8.276;2023-02-01T05:15:42;27.27;;;5.10;;
9948;SDS011;5013;51.840;8.276;2023-02-01T05:18:07;23.67;;;5.30;;
9948;SDS011;5013;51.840;8.276;2023-02-01T05:20:33;20.20;;;4.13;;
9948;SDS011;5013;51.840;8.276;2023-02-01T05:22:58;22.37;;;4.97;;
9948;SDS011;5013;51.840;8.276;2023-02-01T05:25:24;27.47;;;5.57;;
9948;SDS011;5013;51.840;8.276;2023-02-01T05:27:50;26.33;;;4.30;;
9948;SDS011;5013;51.840;8.276;2023-02-01T05:30:15;31.33;;;5.07;;
9948;SDS011;5013;51.840;8.276;2023-02-01T05:32:41;23.80;;;4.80;;
9948;SDS011;5013;51.840;8.276;2023-02-01T05:35:07;19.60;;;5.37;;
9948;SDS011;5013;51.840;8.276;2023-02-01T05:37:36;19.30;;;4.30;;
9948;SDS011;5013;51.840;8.276;2023-02-01T05:40:01;22.53;;;4.90;;
9948;SDS011;5013;51.840;8.276;2023-02-01T05:42:27;28.67;;;5.20;;
9948;SDS011;5013;51.840;8.276;2023-02-01T05:44:53;26.60;;;4.73;;
9948;SDS011;5013;51.840;8.276;2023-02-01T05:47:18;20.77;;;5.20;;
9948;SDS011;5013;51.840;8.276;2023-02-01T05:49:45;18.30;;;4.40;;
9948;SDS011;5013;51.840;8.276;2023-02-01T05:52:11;33.00;;;5.23;;
9948;SDS011;5013;51.840;8.276;2023-02-01T05:54:36;26.87;;;4.97;;
9948;SDS011;5013;51.840;8.276;2023-02-01T05:57:02;26.17;;;4.70;;
9948;SDS011;5013;51.840;8.276;2023-02-01T05:59:28;23.53;;;4.70;;
9948;SDS011;5013;51.840;8.276;2023-02-01T06:01:54;27.97;;;4.80;;
9948;SDS011;5013;51.840;8.276;2023-02-01T06:04:20;25.00;;;5.17;;
9948;SDS011;5013;51.840;8.276;2023-02-01T06:06:45;24.00;;;5.00;;
9948;SDS011;5013;51.840;8.276;2023-02-01T06:09:11;20.33;;;5.17;;
9948;SDS011;5013;51.840;8.276;2023-02-01T06:11:36;21.17;;;4.97;;
9948;SDS011;5013;51.840;8.276;2023-02-01T06:14:02;30.57;;;4.90;;
9948;SDS011;5013;51.840;8.276;2023-02-01T06:16:27;28.13;;;4.90;;
9948;SDS011;5013;51.840;8.276;2023-02-01T06:18:53;18.03;;;4.57;;
9948;SDS011;5013;51.840;8.276;2023-02-01T06:21:19;33.27;;;5.33;;
9948;SDS011;5013;51.840;8.276;2023-02-01T06:23:51;31.30;;;5.33;;
9948;SDS011;5013;51.840;8.276;2023-02-01T06:26:18;19.67;;;4.90;;
9948;SDS011;5013;51.840;8.276;2023-02-01T06:28:44;25.07;;;5.17;;
9948;SDS011;5013;51.840;8.276;2023-02-01T06:31:09;29.07;;;5.37;;
9948;SDS011;5013;51.840;8.276;2023-02-01T06:33:35;36.23;;;6.07;;
9948;SDS011;5013;51.840;8.276;2023-02-01T06:36:02;19.17;;;4.33;;
9948;SDS011;5013;51.840;8.276;2023-02-01T06:38:30;26.53;;;5.03;;
9948;SDS011;5013;51.840;8.276;2023-02-01T06:40:56;27.83;;;5.67;;
9948;SDS011;5013;51.840;8.276;2023-02-01T06:43:24;23.93;;;5.43;;
9948;SDS011;5013;51.840;8.276;2023-02-01T06:45:51;25.50;;;4.43;;
9948;SDS011;5013;51.840;8.276;2023-02-01T06:48:17;29.53;;;5.83;;
9948;SDS011;5013;51.840;8.276;2023-02-01T06:50:43;27.07;;;4.73;;
9948;SDS011;5013;51.840;8.276;2023-02-01T06:53:09;22.87;;;4.87;;
9948;SDS011;5013;51.840;8.276;2023-02-01T06:55:35;24.33;;;4.80;;
9948;SDS011;5013;51.840;8.276;2023-02-01T06:58:00;24.27;;;4.90;;
9948;SDS011;5013;51.840;8.276;2023-02-01T07:00:27;20.00;;;4.90;;
9948;SDS011;5013;51.840;8.276;2023-02-01T07:02:53;20.57;;;4.43;;
9948;SDS011;5013;51.840;8.276;2023-02-01T07:05:18;23.43;;;5.37;;
9948;SDS011;5013;51.840;8.276;2023-02-01T07:07:44;18.27;;;4.80;;
9948;SDS011;5013;51.840;8.276;2023-02-01T07:10:10;22.93;;;5.30;;
9948;SDS011;5013;51.840;8.276;2023-02-01T07:12:35;22.07;;;4.27;;
9948;SDS011;5013;51.840;8.276;2023-02-01T07:15:01;14.37;;;3.47;;
9948;SDS011;5013;51.840;8.276;2023-02-01T07:17:28;23.83;;;4.97;;
9948;SDS011;5013;51.840;8.276;2023-02-01T07:19:54;28.57;;;5.20;;
9948;SDS011;5013;51.840;8.276;2023-02-01T07:22:20;25.27;;;5.23;;
9948;SDS011;5013;51.840;8.276;2023-02-01T07:24:46;27.37;;;4.50;;
9948;SDS011;5013;51.840;8.276;2023-02-01T07:27:11;23.37;;;5.40;;
9948;SDS011;5013;51.840;8.276;2023-02-01T07:29:37;24.67;;;5.10;;
9948;SDS011;5013;51.840;8.276;2023-02-01T07:32:03;18.33;;;5.30;;
9948;SDS011;5013;51.840;8.276;2023-02-01T07:34:28;29.83;;;4.73;;
9948;SDS011;5013;51.840;8.276;2023-02-01T07:36:55;19.80;;;5.40;;
9948;SDS011;5013;51.840;8.276;2023-02-01T07:39:21;23.93;;;4.63;;
9948;SDS011;5013;51.840;8.276;2023-02-01T07:41:46;20.03;;;4.87;;
9948;SDS011;5013;51.840;8.276;2023-02-01T07:44:12;24.83;;;4.90;;
9948;SDS011;5013;51.840;8.276;2023-02-01T07:46:38;28.23;;;5.10;;
9948;SDS011;5013;51.840;8.276;2023-02-01T07:49:04;24.83;;;5.43;;
9948;SDS011;5013;51.840;8.276;2023-02-01T07:51:30;30.10;;;6.07;;
9948;SDS011;5013;51.840;8.276;2023-02-01T07:53:56;28.93;;;5.70;;
9948;SDS011;5013;51.840;8.276;2023-02-01T07:56:22;27.63;;;4.97;;
9948;SDS011;5013;51.840;8.276;2023-02-01T07:58:48;23.43;;;4.87;;
9948;SDS011;5013;51.840;8.276;2023-02-01T08:01:15;26.90;;;5.50;;
9948;SDS011;5013;51.840;8.276;2023-02-01T08:03:46;25.03;;;4.97;;
9948;SDS011;5013;51.840;8.276;2023-02-01T08:06:16;26.23;;;5.20;;
9948;SDS011;5013;51.840;8.276;2023-02-01T08:08:42;26.10;;;4.77;;
9948;SDS011;5013;51.840;8.276;2023-02-01T08:11:10;32.13;;;5.87;;
9948;SDS011;5013;51.840;8.276;2023-02-01T08:13:35;26.33;;;5.10;;
9948;SDS011;5013;51.840;8.276;2023-02-01T08:16:02;25.37;;;5.30;;
9948;SDS011;5013;51.840;8.276;2023-02-01T08:18:29;14.10;;;4.13;;
9948;SDS011;5013;51.840;8.276;2023-02-01T08:20:55;25.33;;;5.93;;
9948;SDS011;5013;51.840;8.276;2023-02-01T08:23:22;34.37;;;5.53;;
9948;SDS011;5013;51.840;8.276;2023-02-01T08:25:48;29.00;;;4.83;;
9948;SDS011;5013;51.840;8.276;2023-02-01T08:28:13;22.37;;;5.23;;
9948;SDS011;5013;51.840;8.276;2023-02-01T08:30:39;20.30;;;4.60;;
9948;SDS011;5013;51.840;8.276;2023-02-01T08:33:06;26.83;;;5.03;;
9948;SDS011;5013;51.840;8.276;2023-02-01T08:35:34;28.40;;;5.37;;
9948;SDS011;5013;51.840;8.276;2023-02-01T08:38:01;22.77;;;5.10;;
9948;SDS011;5013;51.840;8.276;2023-02-01T08:40:26;25.90;;;5.53;;
9948;SDS011;5013;51.840;8.276;2023-02-01T08:42:52;26.07;;;6.33;;
9948;SDS011;5013;51.840;8.276;2023-02-01T08:45:19;25.13;;;5.20;;
9948;SDS011;5013;51.840;8.276;2023-02-01T08:47:47;20.07;;;5.10;;
9948;SDS011;5013;51.840;8.276;2023-02-01T08:50:15;31.20;;;5.60;;
9948;SDS011;5013;51.840;8.276;2023-02-01T08:52:42;33.23;;;6.17;;
9948;SDS011;5013;51.840;8.276;2023-02-01T08:55:08;33.17;;;6.20;;
9948;SDS011;5013;51.840;8.276;2023-02-01T08:57:34;25.40;;;5.63;;
9948;SDS011;5013;51.840;8.276;2023-02-01T08:59:59;20.67;;;6.47;;
9948;SDS011;5013;51.840;8.276;2023-02-01T09:02:25;25.47;;;5.93;;
9948;SDS011;5013;51.840;8.276;2023-02-01T09:04:51;20.43;;;5.63;;
9948;SDS011;5013;51.840;8.276;2023-02-01T09:07:17;25.07;;;5.57;;
9948;SDS011;5013;51.840;8.276;2023-02-01T09:09:43;26.30;;;5.37;;
9948;SDS011;5013;51.840;8.276;2023-02-01T09:12:09;26.93;;;5.83;;
9948;SDS011;5013;51.840;8.276;2023-02-01T09:14:36;29.70;;;6.30;;
9948;SDS011;5013;51.840;8.276;2023-02-01T09:17:01;25.77;;;5.37;;
9948;SDS011;5013;51.840;8.276;2023-02-01T09:19:27;19.97;;;5.43;;
9948;SDS011;5013;51.840;8.276;2023-02-01T09:21:53;19.97;;;4.67;;
9948;SDS011;5013;51.840;8.276;2023-02-01T09:24:18;22.97;;;5.63;;
9948;SDS011;5013;51.840;8.276;2023-02-01T09:26:44;26.37;;;5.40;;
9948;SDS011;5013;51.840;8.276;2023-02-01T09:29:09;22.33;;;5.67;;
9948;SDS011;5013;51.840;8.276;2023-02-01T09:31:35;24.40;;;5.43;;
9948;SDS011;5013;51.840;8.276;2023-02-01T09:34:01;25.07;;;5.40;;
9948;SDS011;5013;51.840;8.276;2023-02-01T09:36:28;24.73;;;5.30;;
9948;SDS011;5013;51.840;8.276;2023-02-01T09:38:53;31.73;;;5.43;;
9948;SDS011;5013;51.840;8.276;2023-02-01T09:41:28;27.63;;;5.93;;
9948;SDS011;5013;51.840;8.276;2023-02-01T09:46:54;20.13;;;5.57;;
9948;SDS011;5013;51.840;8.276;2023-02-01T09:49:26;29.00;;;5.27;;
9948;SDS011;5013;51.840;8.276;2023-02-01T09:51:56;25.67;;;5.47;;
9948;SDS011;5013;51.840;8.276;2023-02-01T09:54:26;31.63;;;5.90;;
9948;SDS011;5013;51.840;8.276;2023-02-01T09:57:08;23.37;;;5.37;;
9948;SDS011;5013;51.840;8.276;2023-02-01T09:59:41;22.03;;;5.43;;
9948;SDS011;5013;51.840;8.276;2023-02-01T10:02:23;28.13;;;6.27;;
9948;SDS011;5013;51.840;8.276;2023-02-01T10:04:52;27.87;;;5.67;;
9948;SDS011;5013;51.840;8.276;2023-02-01T10:28:49;25.57;;;6.43;;
9948;SDS011;5013;51.840;8.276;2023-02-01T10:31:16;21.73;;;5.93;;
9948;SDS011;5013;51.840;8.276;2023-02-01T10:33:50;31.20;;;7.40;;
9948;SDS011;5013;51.840;8.276;2023-02-01T10:36:34;24.23;;;5.77;;
9948;SDS011;5013;51.840;8.276;2023-02-01T10:39:04;25.67;;;5.60;;
9948;SDS011;5013;51.840;8.276;2023-02-01T10:41:33;32.30;;;6.50;;
9948;SDS011;5013;51.840;8.276;2023-02-01T10:44:02;27.70;;;6.13;;
9948;SDS011;5013;51.840;8.276;2023-02-01T10:46:31;27.60;;;6.37;;
9948;SDS011;5013;51.840;8.276;2023-02-01T10:48:57;21.13;;;5.63;;
9948;SDS011;5013;51.840;8.276;2023-02-01T10:51:31;26.73;;;5.97;;
9948;SDS011;5013;51.840;8.276;2023-02-01T10:54:49;22.03;;;5.93;;
9948;SDS011;5013;51.840;8.276;2023-02-01T10:56:59;30.40;;;6.77;;
9948;SDS011;5013;51.840;8.276;2023-02-01T10:59:25;24.10;;;6.17;;
9948;SDS011;5013;51.840;8.276;2023-02-01T11:02:00;24.47;;;5.70;;
9948;SDS011;5013;51.840;8.276;2023-02-01T11:04:32;21.70;;;5.63;;
9948;SDS011;5013;51.840;8.276;2023-02-01T11:07:12;27.83;;;5.77;;
9948;SDS011;5013;51.840;8.276;2023-02-01T11:09:48;20.50;;;5.00;;
9948;SDS011;5013;51.840;8.276;2023-02-01T11:15:19;29.97;;;6.73;;
9948;SDS011;5013;51.840;8.276;2023-02-01T11:17:47;20.67;;;6.03;;
9948;SDS011;5013;51.840;8.276;2023-02-01T11:23:17;32.53;;;7.17;;
9948;SDS011;5013;51.840;8.276;2023-02-01T11:25:49;24.27;;;6.77;;
9948;SDS011;5013;51.840;8.276;2023-02-01T11:28:21;34.50;;;6.43;;
9948;SDS011;5013;51.840;8.276;2023-02-01T11:30:49;28.80;;;6.30;;
9948;SDS011;5013;51.840;8.276;2023-02-01T11:33:20;21.90;;;4.97;;
9948;SDS011;5013;51.840;8.276;2023-02-01T11:35:50;26.17;;;6.27;;
9948;SDS011;5013;51.840;8.276;2023-02-01T11:40:42;24.13;;;5.63;;
9948;SDS011;5013;51.840;8.276;2023-02-01T11:43:22;30.30;;;6.53;;
9948;SDS011;5013;51.840;8.276;2023-02-01T11:48:20;27.90;;;6.53;;
9948;SDS011;5013;51.840;8.276;2023-02-01T11:56:34;26.70;;;5.90;;
9948;SDS011;5013;51.840;8.276;2023-02-01T12:10:16;23.17;;;6.83;;
9948;SDS011;5013;51.840;8.276;2023-02-01T12:13:22;26.57;;;7.77;;
9948;SDS011;5013;51.840;8.276;2023-02-01T12:18:38;25.57;;;7.53;;
9948;SDS011;5013;51.840;8.276;2023-02-01T12:30:00;37.00;;;7.80;;
9948;SDS011;5013;51.840;8.276;2023-02-01T12:32:50;27.87;;;7.67;;
9948;SDS011;5013;51.840;8.276;2023-02-01T12:38:35;24.07;;;6.70;;
9948;SDS011;5013;51.840;8.276;2023-02-01T12:41:09;30.10;;;7.50;;
9948;SDS011;5013;51.840;8.276;2023-02-01T12:51:36;28.20;;;7.50;;
9948;SDS011;5013;51.840;8.276;2023-02-01T12:54:09;20.77;;;6.43;;
9948;SDS011;5013;51.840;8.276;2023-02-01T12:56:53;23.90;;;6.80;;
9948;SDS011;5013;51.840;8.276;2023-02-01T12:59:27;26.83;;;7.27;;
9948;SDS011;5013;51.840;8.276;2023-02-01T13:02:12;22.43;;;6.17;;
9948;SDS011;5013;51.840;8.276;2023-02-01T13:04:58;21.43;;;6.77;;
9948;SDS011;5013;51.840;8.276;2023-02-01T13:07:28;21.47;;;7.03;;
9948;SDS011;5013;51.840;8.276;2023-02-01T13:10:07;20.20;;;7.07;;
9948;SDS011;5013;51.840;8.276;2023-02-01T13:12:45;22.50;;;7.00;;
9948;SDS011;5013;51.840;8.276;2023-02-01T13:15:17;23.00;;;6.00;;
9948;SDS011;5013;51.840;8.276;2023-02-01T13:17:50;26.73;;;7.03;;
9948;SDS011;5013;51.840;8.276;2023-02-01T13:22:59;27.10;;;7.20;;
9948;SDS011;5013;51.840;8.276;2023-02-01T13:25:49;28.07;;;7.30;;
9948;SDS011;5013;51.840;8.276;2023-02-01T13:33:59;26.07;;;6.80;;
9948;SDS011;5013;51.840;8.276;2023-02-01T13:36:53;21.03;;;6.20;;
9948;SDS011;5013;51.840;8.276;2023-02-01T13:42:25;20.10;;;5.67;;
9948;SDS011;5013;51.840;8.276;2023-02-01T13:45:04;24.20;;;5.43;;
9948;SDS011;5013;51.840;8.276;2023-02-01T13:47:39;28.23;;;6.10;;
9948;SDS011;5013;51.840;8.276;2023-02-01T13:50:23;24.40;;;6.33;;
9948;SDS011;5013;51.840;8.276;2023-02-01T13:55:41;19.90;;;5.43;;
9948;SDS011;5013;51.840;8.276;2023-02-01T13:58:15;25.87;;;5.80;;
9948;SDS011;5013;51.840;8.276;2023-02-01T14:00:44;18.23;;;5.20;;
9948;SDS011;5013;51.840;8.276;2023-02-01T14:03:12;25.83;;;6.00;;
9948;SDS011;5013;51.840;8.276;2023-02-01T14:10:53;32.37;;;9.57;;
9948;SDS011;5013;51.840;8.276;2023-02-01T14:13:30;64.07;;;21.33;;
9948;SDS011;5013;51.840;8.276;2023-02-01T14:23:44;28.63;;;5.63;;
9948;SDS011;5013;51.840;8.276;2023-02-01T14:26:13;24.93;;;5.43;;
9948;SDS011;5013;51.840;8.276;2023-02-01T14:28:43;19.63;;;5.17;;
9948;SDS011;5013;51.840;8.276;2023-02-01T14:31:22;19.80;;;4.97;;
9948;SDS011;5013;51.840;8.276;2023-02-01T14:33:57;25.17;;;6.10;;
9948;SDS011;5013;51.840;8.276;2023-02-01T14:36:25;25.00;;;5.27;;
9948;SDS011;5013;51.840;8.276;2023-02-01T14:39:03;25.20;;;5.30;;
9948;SDS011;5013;51.840;8.276;2023-02-01T14:49:34;18.93;;;4.70;;
9948;SDS011;5013;51.840;8.276;2023-02-01T14:52:09;32.13;;;5.43;;
9948;SDS011;5013;51.840;8.276;2023-02-01T14:54:37;19.10;;;5.23;;
9948;SDS011;5013;51.840;8.276;2023-02-01T14:57:05;27.40;;;5.07;;
9948;SDS011;5013;51.840;8.276;2023-02-01T14:59:35;22.53;;;4.57;;
9948;SDS011;5013;51.840;8.276;2023-02-01T15:02:02;20.13;;;4.63;;
9948;SDS011;5013;51.840;8.276;2023-02-01T15:04:53;27.70;;;5.43;;
9948;SDS011;5013;51.840;8.276;2023-02-01T15:07:21;22.30;;;5.20;;
9948;SDS011;5013;51.840;8.276;2023-02-01T15:09:49;25.93;;;5.63;;
9948;SDS011;5013;51.840;8.276;2023-02-01T15:12:17;21.07;;;4.80;;
9948;SDS011;5013;51.840;8.276;2023-02-01T15:17:39;19.23;;;4.47;;
9948;SDS011;5013;51.840;8.276;2023-02-01T15:20:16;22.10;;;4.77;;
9948;SDS011;5013;51.840;8.276;2023-02-01T15:23:03;22.50;;;5.37;;
9948;SDS011;5013;51.840;8.276;2023-02-01T15:25:33;24.40;;;4.97;;
9948;SDS011;5013;51.840;8.276;2023-02-01T15:28:01;21.63;;;4.57;;
9948;SDS011;5013;51.840;8.276;2023-02-01T15:30:32;15.77;;;3.97;;
9948;SDS011;5013;51.840;8.276;2023-02-01T15:33:16;22.67;;;4.47;;
9948;SDS011;5013;51.840;8.276;2023-02-01T15:35:45;19.77;;;4.97;;
9948;SDS011;5013;51.840;8.276;2023-02-01T15:40:54;26.00;;;4.97;;
9948;SDS011;5013;51.840;8.276;2023-02-01T15:43:30;18.20;;;4.83;;
9948;SDS011;5013;51.840;8.276;2023-02-01T15:46:00;26.03;;;5.53;;
9948;SDS011;5013;51.840;8.276;2023-02-01T15:48:30;31.60;;;5.90;;
9948;SDS011;5013;51.840;8.276;2023-02-01T15:51:01;24.37;;;4.60;;
9948;SDS011;5013;51.840;8.276;2023-02-01T15:53:28;27.10;;;6.33;;
9948;SDS011;5013;51.840;8.276;2023-02-01T15:55:57;16.87;;;3.63;;
9948;SDS011;5013;51.840;8.276;2023-02-01T15:58:25;17.00;;;4.17;;
9948;SDS011;5013;51.840;8.276;2023-02-01T16:00:55;18.30;;;4.53;;
9948;SDS011;5013;51.840;8.276;2023-02-01T16:03:34;20.60;;;4.57;;
9948;SDS011;5013;51.840;8.276;2023-02-01T16:06:30;16.97;;;5.70;;
9948;SDS011;5013;51.840;8.276;2023-02-01T16:11:24;9.93;;;3.20;;
9948;SDS011;5013;51.840;8.276;2023-02-01T16:14:04;13.33;;;2.80;;
9948;SDS011;5013;51.840;8.276;2023-02-01T16:16:30;13.90;;;3.20;;
9948;SDS011;5013;51.840;8.276;2023-02-01T16:18:55;15.00;;;3.73;;
9948;SDS011;5013;51.840;8.276;2023-02-01T16:21:21;6.43;;;3.43;;
9948;SDS011;5013;51.840;8.276;2023-02-01T16:23:48;12.93;;;2.70;;
9948;SDS011;5013;51.840;8.276;2023-02-01T16:26:17;8.13;;;2.53;;
9948;SDS011;5013;51.840;8.276;2023-02-01T16:28:43;12.47;;;3.30;;
9948;SDS011;5013;51.840;8.276;2023-02-01T16:31:13;8.33;;;2.73;;
9948;SDS011;5013;51.840;8.276;2023-02-01T16:33:44;11.07;;;3.37;;
9948;SDS011;5013;51.840;8.276;2023-02-01T16:36:11;12.60;;;3.40;;
9948;SDS011;5013;51.840;8.276;2023-02-01T16:38:38;11.50;;;3.00;;
9948;SDS011;5013;51.840;8.276;2023-02-01T16:41:04;11.53;;;3.13;;
9948;SDS011;5013;51.840;8.276;2023-02-01T16:43:30;6.67;;;2.17;;
9948;SDS011;5013;51.840;8.276;2023-02-01T16:45:58;9.03;;;2.20;;
9948;SDS011;5013;51.840;8.276;2023-02-01T16:48:28;6.17;;;1.83;;
9948;SDS011;5013;51.840;8.276;2023-02-01T16:50:56;8.43;;;3.07;;
9948;SDS011;5013;51.840;8.276;2023-02-01T16:53:25;9.60;;;2.50;;
9948;SDS011;5013;51.840;8.276;2023-02-01T16:55:52;11.33;;;2.77;;
9948;SDS011;5013;51.840;8.276;2023-02-01T16:58:19;11.00;;;2.50;;
9948;SDS011;5013;51.840;8.276;2023-02-01T17:00:45;11.13;;;2.97;;
9948;SDS011;5013;51.840;8.276;2023-02-01T17:03:12;16.33;;;3.27;;
9948;SDS011;5013;51.840;8.276;2023-02-01T17:05:41;14.90;;;3.53;;
9948;SDS011;5013;51.840;8.276;2023-02-01T17:08:13;15.67;;;3.90;;
9948;SDS011;5013;51.840;8.276;2023-02-01T17:10:45;17.07;;;4.37;;
9948;SDS011;5013;51.840;8.276;2023-02-01T17:13:12;18.70;;;3.80;;
9948;SDS011;5013;51.840;8.276;2023-02-01T17:15:39;21.07;;;4.83;;
9948;SDS011;5013;51.840;8.276;2023-02-01T17:18:10;14.07;;;4.97;;
9948;SDS011;5013;51.840;8.276;2023-02-01T17:20:40;13.03;;;4.27;;
9948;SDS011;5013;51.840;8.276;2023-02-01T17:23:06;20.53;;;4.20;;
9948;SDS011;5013;51.840;8.276;2023-02-01T17:25:32;20.73;;;5.00;;
9948;SDS011;5013;51.840;8.276;2023-02-01T17:27:58;22.50;;;4.70;;
9948;SDS011;5013;51.840;8.276;2023-02-01T17:30:24;21.03;;;5.50;;
9948;SDS011;5013;51.840;8.276;2023-02-01T17:32:49;15.30;;;4.63;;
9948;SDS011;5013;51.840;8.276;2023-02-01T17:35:18;14.63;;;3.47;;
9948;SDS011;5013;51.840;8.276;2023-02-01T17:37:46;12.80;;;3.33;;
9948;SDS011;5013;51.840;8.276;2023-02-01T17:40:12;12.97;;;3.77;;
9948;SDS011;5013;51.840;8.276;2023-02-01T17:42:38;13.87;;;3.10;;
9948;SDS011;5013;51.840;8.276;2023-02-01T17:45:15;16.93;;;3.33;;
9948;SDS011;5013;51.840;8.276;2023-02-01T17:47:42;12.00;;;3.13;;
9948;SDS011;5013;51.840;8.276;2023-02-01T17:50:07;15.67;;;3.20;;
9948;SDS011;5013;51.840;8.276;2023-02-01T17:52:33;10.77;;;3.30;;
9948;SDS011;5013;51.840;8.276;2023-02-01T17:55:00;15.20;;;3.50;;
9948;SDS011;5013;51.840;8.276;2023-02-01T17:57:27;17.57;;;3.53;;